Terminal Aerodrome Forecast
Issued by NWS Chicago, IL

Home | Current Version | Previous Version | Graphics & Text | Print | Product List | Glossary On
Versions: 1 2 3 4 5 6 7 8 9 10 11 12 13 14 15 16 17 18 19 20 21 22 23 24 25 26
717
FTUS43 KLOT 060531
TAFRFD
TAF
KRFD 060531Z 0606/0706 14007KT 1SM BR OVC003
     FM060900 12005KT 1/2SM FZFG VV002
     FM061600 26010KT 4SM BR BKN020
     FM061900 27012G18KT P6SM SCT030=

USA.gov is the U.S. government's official web portal to all federal, state and local government web resources and services.